Terminal Aerodrome Forecast
Issued by NWS Detroit/Pontiac, MI

Home | Current Version | Previous Version | Text Only | Print | Product List | Glossary On
Versions: 1 2 3 4 5 6 7 8 9 10 11 12 13
000
FTUS43 KDTX 052320
TAFFNT
TAF
KFNT 052320Z 0600/0624 09010KT P6SM BKN035
     FM060300 10005KT 5SM BR OVC007
     FM060700 11005KT 4SM -SHRA OVC007
     FM061100 11005KT 2SM BR OVC007=

USA.gov is the U.S. government's official web portal to all federal, state and local government web resources and services.